Time;durP1;ratioP1;P1;durP2;ratioP2;P2;SDS_P1;SDS_P2;PMS_P1;PMS_P2;Temp;Humidity;BMP_temperature;BMP_pressure;BME280_temperature;BME280_humidity;BME280_pressure;Samples;Min_cycle;Max_cycle;Signal;HPM_P1;HPM_P2
2022/03/21 00:00:45;;;;;;;16.95;9.18;;;;;;;3.22;42.01;102651.63;4962888;28;20037;-71
2022/03/21 00:03:13;;;;;;;13.80;8.07;;;;;;;3.15;42.53;102651.16;4964073;28;20052;-71
2022/03/21 00:05:39;;;;;;;12.43;8.13;;;;;;;3.05;42.84;102655.84;4966274;28;20137;-71
2022/03/21 00:08:04;;;;;;;12.73;7.53;;;;;;;2.97;43.86;102657.09;4966061;28;20126;-71
2022/03/21 00:10:36;;;;;;;13.80;8.82;;;;;;;2.90;43.90;102660.16;4964685;28;20046;-71
2022/03/21 00:13:03;;;;;;;12.80;7.97;;;;;;;2.84;44.05;102659.78;4961605;28;20067;-71
2022/03/21 00:15:31;;;;;;;15.63;8.35;;;;;;;2.77;44.04;102660.22;4965679;28;20407;-71
2022/03/21 00:17:56;;;;;;;11.73;7.80;;;;;;;2.71;44.54;102665.97;4965543;28;20096;-71
2022/03/21 00:20:22;;;;;;;12.15;7.72;;;;;;;2.68;44.72;102657.09;4964260;28;20031;-71
2022/03/21 00:22:48;;;;;;;13.27;8.23;;;;;;;2.64;44.73;102661.19;4966095;28;20043;-71
2022/03/21 00:25:13;;;;;;;12.13;7.68;;;;;;;2.60;44.25;102648.81;4965617;28;20039;-71
2022/03/21 00:27:40;;;;;;;14.73;7.85;;;;;;;2.59;44.29;102652.19;4964908;28;20036;-71
2022/03/21 00:30:09;;;;;;;12.55;7.47;;;;;;;2.58;44.98;102650.41;4944173;28;20040;-71
2022/03/21 00:32:37;;;;;;;12.07;8.10;;;;;;;2.58;45.23;102653.03;4961272;28;20055;-71
2022/03/21 00:35:04;;;;;;;14.93;9.27;;;;;;;2.57;44.77;102651.25;4965590;28;20488;-71
2022/03/21 00:37:31;;;;;;;13.23;8.07;;;;;;;2.56;45.10;102659.84;4963597;28;20027;-71
2022/03/21 00:39:56;;;;;;;14.55;7.97;;;;;;;2.56;45.12;102655.53;4966039;28;20042;-71
2022/03/21 00:42:22;;;;;;;13.90;7.95;;;;;;;2.56;44.71;102659.84;4964582;28;20042;-71
2022/03/21 00:44:48;;;;;;;14.55;8.73;;;;;;;2.52;45.17;102656.16;4965304;28;20076;-71
2022/03/21 00:47:15;;;;;;;12.10;6.90;;;;;;;2.49;44.82;102658.59;4963612;28;20035;-71
2022/03/21 00:49:41;;;;;;;14.50;8.60;;;;;;;2.45;45.15;102664.41;4960258;28;20069;-71
2022/03/21 00:52:07;;;;;;;12.48;7.70;;;;;;;2.40;45.59;102663.22;4965679;28;20070;-71
2022/03/21 00:54:32;;;;;;;13.40;8.45;;;;;;;2.38;45.43;102659.63;4963861;28;20125;-71
2022/03/21 00:56:58;;;;;;;15.00;8.82;;;;;;;2.32;46.13;102646.22;4966021;28;20035;-71
2022/03/21 00:59:23;;;;;;;14.55;8.63;;;;;;;2.25;46.54;102646.66;4963321;28;20055;-71
2022/03/21 01:01:49;;;;;;;14.25;8.05;;;;;;;2.19;45.84;102652.38;4965590;28;20042;-71
2022/03/21 01:04:14;;;;;;;14.60;8.18;;;;;;;2.16;45.95;102652.19;4964641;28;20039;-71
2022/03/21 01:06:40;;;;;;;13.05;7.70;;;;;;;2.11;46.40;102649.31;4963925;28;20035;-71
2022/03/21 01:09:05;;;;;;;13.88;8.80;;;;;;;2.08;46.31;102651.72;4966219;28;20034;-72
2022/03/21 01:11:31;;;;;;;15.48;8.43;;;;;;;2.04;46.83;102657.53;4963081;28;20417;-71
2022/03/21 01:13:56;;;;;;;11.90;8.02;;;;;;;2.00;46.73;102654.66;4965181;28;20378;-71
2022/03/21 01:16:21;;;;;;;13.20;8.02;;;;;;;1.94;46.36;102663.88;4962314;28;20154;-71
2022/03/21 01:18:47;;;;;;;13.05;8.20;;;;;;;1.88;46.41;102657.38;4965531;28;20085;-71
2022/03/21 01:21:12;;;;;;;13.73;7.32;;;;;;;1.81;46.89;102652.56;4962771;28;20454;-72
2022/03/21 01:23:38;;;;;;;13.32;8.52;;;;;;;1.72;47.39;102658.13;4964352;28;20049;-71
2022/03/21 01:26:03;;;;;;;12.45;7.93;;;;;;;1.64;46.78;102657.63;4964118;28;20039;-71
2022/03/21 01:28:28;;;;;;;13.68;8.63;;;;;;;1.56;47.76;102661.44;4963697;28;20075;-71
2022/03/21 01:30:54;;;;;;;15.00;8.48;;;;;;;1.49;47.65;102664.44;4965439;28;20038;-72
2022/03/21 01:33:19;;;;;;;13.88;7.90;;;;;;;1.44;48.10;102664.16;4962758;28;20031;-71
2022/03/21 01:35:44;;;;;;;13.13;8.07;;;;;;;1.43;47.78;102661.44;4965048;28;20481;-71
2022/03/21 01:38:10;;;;;;;14.25;8.82;;;;;;;1.37;47.80;102669.75;4964046;28;20039;-71
2022/03/21 01:40:35;;;;;;;12.95;8.00;;;;;;;1.34;47.77;102663.44;4963304;28;20035;-71
2022/03/21 01:43:01;;;;;;;13.65;8.27;;;;;;;1.29;47.88;102671.84;4965253;28;20089;-71
2022/03/21 01:45:28;;;;;;;11.82;7.72;;;;;;;1.25;48.00;102661.13;4962701;28;20050;-71
2022/03/21 01:47:53;;;;;;;13.10;8.02;;;;;;;1.18;48.44;102662.44;4962387;28;20035;-71
2022/03/21 01:50:20;;;;;;;12.35;7.75;;;;;;;1.12;47.80;102662.03;4962624;28;20410;-71
2022/03/21 01:52:45;;;;;;;12.23;8.25;;;;;;;1.05;48.69;102654.63;4965093;28;20377;-71
2022/03/21 01:57:58;;;;;;;14.35;8.70;;;;;;;1.02;49.35;102659.59;4962245;28;20035;-71
2022/03/21 02:00:24;;;;;;;12.10;7.72;;;;;;;0.97;49.25;102654.13;4964335;28;20039;-71
2022/03/21 02:02:49;;;;;;;14.23;8.32;;;;;;;0.92;49.31;102652.00;4963972;28;20082;-71
2022/03/21 02:05:15;;;;;;;13.95;9.10;;;;;;;0.88;49.25;102645.69;4962579;28;20085;-71
2022/03/21 02:07:40;;;;;;;15.25;9.57;;;;;;;0.80;49.65;102642.56;4963941;28;20105;-71
2022/03/21 02:10:06;;;;;;;13.80;8.35;;;;;;;0.76;49.67;102635.41;4962451;28;20046;-71
2022/03/21 02:12:34;;;;;;;15.02;9.52;;;;;;;0.70;50.30;102642.75;4963712;28;20026;-71
2022/03/21 02:14:59;;;;;;;15.27;9.00;;;;;;;0.63;50.77;102651.84;4964488;28;20034;-71
2022/03/21 02:17:27;;;;;;;15.85;9.00;;;;;;;0.56;50.05;102646.13;4961670;28;20035;-71
2022/03/21 02:19:54;;;;;;;16.00;9.45;;;;;;;0.50;50.17;102650.88;4964343;28;20401;-71
2022/03/21 02:22:32;;;;;;;13.45;8.55;;;;;;;0.43;51.36;102649.59;4961608;28;20064;-71
2022/03/21 02:25:03;;;;;;;16.65;9.30;;;;;;;0.32;51.38;102659.22;4959001;28;20090;-71
2022/03/21 02:27:31;;;;;;;;;;;;;;;0.27;51.95;102663.19;4963002;28;20031;-71
2022/03/21 02:29:58;;;;;;;14.15;8.98;;;;;;;0.27;50.93;102663.19;4957780;28;19921;-71
2022/03/21 02:32:24;;;;;;;12.75;8.10;;;;;;;0.22;50.54;102660.28;4962920;28;20030;-71
2022/03/21 02:34:50;;;;;;;13.15;8.40;;;;;;;0.17;50.80;102665.94;4963024;28;20393;-71
2022/03/21 02:37:17;;;;;;;15.55;8.88;;;;;;;0.14;50.69;102660.53;4962236;28;20037;-71
2022/03/21 02:39:44;;;;;;;14.82;9.27;;;;;;;0.15;50.94;102663.22;4964633;28;20038;-71
2022/03/21 02:42:10;;;;;;;12.95;8.77;;;;;;;0.15;50.43;102660.63;4961874;28;20039;-71
2022/03/21 02:44:37;;;;;;;14.87;9.13;;;;;;;0.16;51.13;102653.78;4963324;28;20035;-71
2022/03/21 02:47:03;;;;;;;15.17;8.17;;;;;;;0.15;50.28;102651.94;4962107;28;20027;-71
2022/03/21 02:49:29;;;;;;;14.20;8.83;;;;;;;0.11;51.07;102649.94;4961588;28;20035;-71
2022/03/21 02:51:56;;;;;;;17.43;8.63;;;;;;;0.11;51.35;102656.03;4963728;28;20036;-71
2022/03/21 02:54:22;;;;;;;14.50;8.43;;;;;;;0.09;50.93;102656.72;4962957;28;20126;-71
2022/03/21 02:56:49;;;;;;;14.43;9.10;;;;;;;0.05;51.38;102660.78;4961950;28;20039;-71
2022/03/21 02:59:16;;;;;;;18.13;9.07;;;;;;;-0.01;50.87;102645.69;4964255;28;20051;-71
2022/03/21 03:01:42;;;;;;;14.95;8.90;;;;;;;-0.07;51.62;102650.44;4961643;28;20039;-71
2022/03/21 03:04:08;;;;;;;13.40;8.20;;;;;;;-0.12;51.39;102646.63;4960335;28;20089;-71
2022/03/21 03:06:34;;;;;;;15.40;9.17;;;;;;;-0.14;51.82;102643.00;4961822;28;20073;-71
2022/03/21 03:09:00;;;;;;;14.77;9.10;;;;;;;-0.13;51.69;102649.09;4960557;28;20035;-71
2022/03/21 03:11:25;;;;;;;19.23;9.73;;;;;;;-0.15;52.70;102648.09;4961430;28;20401;-71
2022/03/21 03:13:51;;;;;;;15.03;10.00;;;;;;;-0.16;52.60;102644.59;4963069;28;20419;-71
2022/03/21 03:16:16;;;;;;;16.83;9.47;;;;;;;-0.20;52.35;102637.41;4960862;28;20118;-71
2022/03/21 03:18:44;;;;;;;15.10;8.83;;;;;;;-0.24;51.95;102648.34;4960373;28;20082;-71
2022/03/21 03:21:10;;;;;;;14.20;8.83;;;;;;;-0.27;52.42;102632.53;4957529;28;20287;-71
2022/03/21 03:23:40;;;;;;;16.80;9.33;;;;;;;-0.28;53.53;102639.44;4961713;28;20031;-71
2022/03/21 03:26:05;;;;;;;14.70;9.07;;;;;;;-0.26;52.85;102643.06;4963639;28;20041;-71
2022/03/21 03:28:32;;;;;;;14.40;8.73;;;;;;;-0.25;52.72;102647.44;4961072;28;20054;-71
2022/03/21 03:31:00;;;;;;;14.10;8.67;;;;;;;-0.24;52.85;102645.75;4963380;28;20034;-72
2022/03/21 03:33:27;;;;;;;17.17;9.67;;;;;;;-0.31;53.28;102639.22;4962842;28;20486;-71
2022/03/21 03:35:53;;;;;;;16.73;9.23;;;;;;;-0.36;52.76;102635.41;4961219;28;20039;-71
2022/03/21 03:38:18;;;;;;;14.33;8.97;;;;;;;-0.38;53.52;102641.28;4963743;28;20092;-72
2022/03/21 03:40:44;;;;;;;16.97;10.73;;;;;;;-0.40;54.07;102642.84;4961679;28;20650;-71
2022/03/21 03:43:16;;;;;;;18.70;9.53;;;;;;;-0.41;54.76;102635.88;4962146;28;20054;-71
2022/03/21 03:45:42;;;;;;;16.00;8.73;;;;;;;-0.46;54.39;102632.94;4963898;28;20081;-71
2022/03/21 03:48:09;;;;;;;15.47;9.90;;;;;;;-0.45;53.82;102635.66;4960159;28;20058;-71
2022/03/21 03:50:34;;;;;;;14.03;9.13;;;;;;;-0.46;54.24;102641.59;4962284;28;20089;-71
2022/03/21 03:53:00;;;;;;;17.97;9.80;;;;;;;-0.49;54.31;102643.09;4959275;28;20035;-71
2022/03/21 03:55:26;;;;;;;15.20;8.27;;;;;;;-0.49;54.57;102643.97;4963469;28;20045;-71
2022/03/21 03:57:52;;;;;;;16.90;8.93;;;;;;;-0.47;54.07;102636.31;4960765;28;20054;-71
2022/03/21 04:00:18;;;;;;;16.20;8.80;;;;;;;-0.47;54.08;102632.03;4962619;28;20505;-71
2022/03/21 04:05:28;;;;;;;15.07;9.67;;;;;;;-0.47;54.06;102628.53;4960025;28;20045;-71
2022/03/21 04:07:54;;;;;;;15.73;9.47;;;;;;;-0.49;54.46;102632.72;4961261;28;20039;-71
2022/03/21 04:10:22;;;;;;;15.50;9.57;;;;;;;-0.52;54.78;102628.22;4963652;28;20523;-71
2022/03/21 04:12:49;;;;;;;14.37;8.47;;;;;;;-0.52;55.20;102628.22;4961176;28;20073;-71
2022/03/21 04:15:18;;;;;;;16.77;9.73;;;;;;;-0.49;54.25;102622.34;4960581;28;20039;-71
2022/03/21 04:17:44;;;;;;;15.13;10.40;;;;;;;-0.49;54.59;102628.41;4957939;28;20019;-71
2022/03/21 04:20:10;;;;;;;15.53;9.17;;;;;;;-0.50;53.90;102629.22;4959190;28;20031;-71
2022/03/21 04:22:36;;;;;;;16.10;8.87;;;;;;;-0.50;54.00;102641.28;4959822;28;20035;-71
2022/03/21 04:25:07;;;;;;;16.93;8.87;;;;;;;-0.50;54.69;102643.84;4959263;28;20493;-72
2022/03/21 04:27:33;;;;;;;13.73;8.50;;;;;;;-0.54;54.68;102641.84;4964523;28;20553;-71
2022/03/21 04:29:59;;;;;;;13.97;8.60;;;;;;;-0.51;55.06;102648.16;4964393;28;20122;-71
2022/03/21 04:32:26;;;;;;;15.57;8.57;;;;;;;-0.50;54.41;102652.56;4964946;28;20034;-71
2022/03/21 04:34:51;;;;;;;17.20;9.33;;;;;;;-0.48;54.57;102645.78;4966284;28;20043;-72
2022/03/21 04:37:16;;;;;;;15.83;9.33;;;;;;;-0.49;54.40;102649.16;4963599;28;20043;-72
2022/03/21 04:39:42;;;;;;;14.57;8.63;;;;;;;-0.51;54.55;102645.56;4960520;28;20130;-71
2022/03/21 04:42:07;;;;;;;15.10;7.80;;;;;;;-0.52;54.37;102648.97;4963334;28;20045;-72
2022/03/21 04:44:33;;;;;;;14.93;9.03;;;;;;;-0.56;54.36;102652.09;4963422;28;20110;-71
2022/03/21 04:46:58;;;;;;;16.17;8.83;;;;;;;-0.58;54.57;102648.50;4965663;28;20027;-71
2022/03/21 04:49:23;;;;;;;14.43;9.13;;;;;;;-0.62;54.65;102646.47;4963430;28;20522;-71
2022/03/21 04:51:49;;;;;;;14.30;8.40;;;;;;;-0.64;54.90;102635.09;4965422;28;20039;-71
2022/03/21 04:54:15;;;;;;;13.33;7.70;;;;;;;-0.65;54.51;102642.78;4964997;28;20042;-71
2022/03/21 04:56:40;;;;;;;13.67;7.90;;;;;;;-0.68;53.80;102656.41;4963981;28;20406;-71
2022/03/21 04:59:07;;;;;;;13.53;8.20;;;;;;;-0.65;54.30;102651.44;4966318;28;20122;-71
2022/03/21 05:01:33;;;;;;;13.50;8.40;;;;;;;-0.67;54.21;102655.63;4963224;28;20075;-71
2022/03/21 05:03:59;;;;;;;14.23;8.33;;;;;;;-0.72;54.06;102664.75;4964480;28;20573;-71
2022/03/21 05:06:25;;;;;;;19.43;10.63;;;;;;;-0.78;53.77;102674.69;4963823;28;20043;-71
2022/03/21 05:08:51;;;;;;;13.97;8.17;;;;;;;-0.79;54.34;102667.66;4966142;28;20121;-71
2022/03/21 05:11:16;;;;;;;13.73;8.30;;;;;;;-0.78;53.72;102665.19;4963167;28;20865;-71
2022/03/21 05:13:41;;;;;;;14.90;8.77;;;;;;;-0.77;54.56;102669.59;4961731;28;20560;-71
2022/03/21 05:16:07;;;;;;;15.23;8.60;;;;;;;-0.76;54.23;102661.03;4963448;28;20506;-71
2022/03/21 05:18:35;;;;;;;15.50;8.67;;;;;;;-0.78;54.86;102664.31;4962200;28;20517;-71
2022/03/21 05:21:05;;;;;;;12.30;7.97;;;;;;;-0.85;54.78;102662.03;4959223;28;20082;-71
2022/03/21 05:31:43;;;;;;;14.63;8.90;;;;;;;-0.89;54.19;102681.66;4966749;28;20035;-71
2022/03/21 05:36:54;;;;;;;13.37;8.73;;;;;;;-0.88;54.78;102681.75;4960273;28;20034;-71
2022/03/21 05:39:21;;;;;;;13.60;8.00;;;;;;;-0.80;54.18;102687.50;4963955;28;20039;-71
2022/03/21 05:41:47;;;;;;;14.83;8.27;;;;;;;-0.76;54.73;102683.44;4960834;28;20046;-71
2022/03/21 05:44:12;;;;;;;13.37;7.63;;;;;;;-0.71;54.46;102682.09;4964837;28;20053;-71
2022/03/21 05:46:38;;;;;;;12.87;7.17;;;;;;;-0.67;53.92;102687.63;4955550;28;20027;-71
2022/03/21 05:49:04;;;;;;;16.47;8.10;;;;;;;-0.63;54.95;102683.56;4958711;28;20126;-72
2022/03/21 05:51:34;;;;;;;13.20;8.00;;;;;;;-0.60;54.68;102686.41;4956493;28;20039;-71
2022/03/21 05:54:05;;;;;;;14.50;8.07;;;;;;;-0.57;54.39;102686.63;4954693;28;20493;-71
2022/03/21 05:56:32;;;;;;;17.23;8.43;;;;;;;-0.52;54.60;102689.56;4963079;28;20054;-71
2022/03/21 06:00:20;;;;;;;14.70;8.77;;;;;;;-0.39;53.84;102680.94;4962237;28;20049;-71
2022/03/21 06:01:51;;;;;;;15.33;8.27;;;;;;;-0.29;53.74;102684.34;4959375;28;20118;-71
2022/03/21 06:04:17;;;;;;;17.80;9.13;;;;;;;-0.18;53.74;102679.94;4958023;28;20042;-71
2022/03/21 06:06:43;;;;;;;13.03;7.90;;;;;;;-0.10;53.55;102686.56;4962420;28;20041;-71
2022/03/21 06:09:08;;;;;;;13.90;8.30;;;;;;;0.02;52.93;102693.41;4963245;28;20066;-71
2022/03/21 06:11:37;;;;;;;14.27;8.60;;;;;;;0.12;52.84;102693.28;4960704;28;20405;-71
2022/03/21 06:14:07;;;;;;;13.90;7.37;;;;;;;0.20;52.87;102697.31;4958241;28;20537;-71
2022/03/21 06:16:33;;;;;;;12.50;7.97;;;;;;;0.32;52.04;102699.91;4964128;28;20047;-72
2022/03/21 06:19:01;;;;;;;12.77;8.37;;;;;;;0.40;51.56;102711.72;4965477;28;20082;-71
2022/03/21 06:21:30;;;;;;;12.40;8.03;;;;;;;0.50;51.63;102700.25;4963968;28;20397;-71
2022/03/21 06:23:56;;;;;;;14.83;7.83;;;;;;;0.57;51.68;102705.09;4963506;28;20405;-71
2022/03/21 06:26:21;;;;;;;15.73;9.07;;;;;;;0.66;51.18;102703.13;4965149;28;20031;-71
2022/03/21 06:28:47;;;;;;;13.95;8.02;;;;;;;0.74;51.53;102699.38;4966806;28;20027;-71
2022/03/21 06:31:13;;;;;;;13.55;8.07;;;;;;;0.84;51.60;102699.19;4963861;28;20497;-71
2022/03/21 06:33:40;;;;;;;13.18;8.27;;;;;;;0.96;51.65;102706.91;4962963;28;20114;-71
2022/03/21 06:36:05;;;;;;;12.60;7.45;;;;;;;1.05;51.67;102706.66;4961790;28;20042;-72
2022/03/21 06:38:31;;;;;;;10.75;7.38;;;;;;;1.16;51.19;102710.84;4960827;28;20047;-71
2022/03/21 06:40:57;;;;;;;13.00;7.93;;;;;;;1.30;50.98;102709.16;4964074;28;20063;-71
2022/03/21 06:43:24;;;;;;;15.55;8.60;;;;;;;1.44;50.07;102708.41;4962409;28;20147;-71
2022/03/21 06:45:51;;;;;;;13.27;7.45;;;;;;;1.56;49.78;102702.19;4964077;28;20030;-72
2022/03/21 06:48:18;;;;;;;13.07;8.30;;;;;;;1.66;49.72;102702.88;4961565;28;20042;-71
2022/03/21 06:50:46;;;;;;;11.93;8.52;;;;;;;1.76;49.41;102706.97;4963972;28;20046;-71
2022/03/21 06:53:12;;;;;;;13.27;7.93;;;;;;;1.84;49.48;102716.19;4962515;28;20470;-71
2022/03/21 06:55:37;;;;;;;12.43;7.75;;;;;;;1.95;48.92;102722.06;4961617;28;20082;-71
2022/03/21 06:58:03;;;;;;;18.80;8.32;;;;;;;2.06;48.90;102720.16;4959068;28;21092;-72
2022/03/21 07:00:29;;;;;;;13.85;7.97;;;;;;;2.16;48.51;102720.81;4963563;28;20062;-71
2022/03/21 07:02:54;;;;;;;15.27;8.27;;;;;;;2.21;47.45;102718.53;4964407;28;20043;-71
2022/03/21 07:05:19;;;;;;;12.63;7.30;;;;;;;2.32;47.49;102719.19;4962163;28;20035;-72
2022/03/21 07:07:46;;;;;;;16.02;9.38;;;;;;;2.42;47.26;102717.25;4964722;23;20055;-74
2022/03/21 07:10:12;;;;;;;12.05;7.75;;;;;;;2.54;47.22;102717.13;4949539;29;20055;-74
2022/03/21 07:12:38;;;;;;;15.27;8.35;;;;;;;2.60;46.89;102719.19;4951183;28;20035;-74
2022/03/21 07:15:05;;;;;;;11.63;7.13;;;;;;;2.69;46.91;102711.91;4948991;29;20035;-74
2022/03/21 07:17:30;;;;;;;13.13;8.20;;;;;;;2.74;47.07;102713.09;4952817;28;20055;-74
2022/03/21 07:19:56;;;;;;;10.80;6.60;;;;;;;2.89;46.90;102709.63;4949587;28;20410;-74
2022/03/21 07:22:21;;;;;;;13.63;8.23;;;;;;;3.00;46.67;102708.56;4952740;28;20035;-74
2022/03/21 07:24:46;;;;;;;12.45;8.18;;;;;;;3.13;46.54;102708.47;4952978;28;20054;-74
2022/03/21 07:27:12;;;;;;;13.25;8.13;;;;;;;3.25;46.54;102703.09;4947025;29;20470;-74
2022/03/21 07:29:38;;;;;;;11.15;6.93;;;;;;;3.36;45.99;102702.00;4952306;28;20035;-74
2022/03/21 07:32:04;;;;;;;12.48;7.55;;;;;;;3.45;45.32;102706.84;4952571;28;20043;-74
2022/03/21 07:34:29;;;;;;;12.23;7.85;;;;;;;3.58;45.48;102704.09;4960299;28;20082;-74
2022/03/21 07:36:55;;;;;;;20.55;12.55;;;;;;;3.65;45.34;102701.03;4952738;28;20067;-74
2022/03/21 07:39:20;;;;;;;13.88;9.00;;;;;;;3.74;44.06;102701.53;4952650;28;20039;-74
2022/03/21 07:41:46;;;;;;;13.63;8.27;;;;;;;3.85;43.64;102703.88;4952544;28;20035;-74
2022/03/21 07:47:17;;;;;;;12.15;7.63;;;;;;;3.97;43.63;102698.44;4951515;29;20035;-74
2022/03/21 07:49:43;;;;;;;11.90;8.07;;;;;;;4.25;43.62;102696.53;4952174;29;20069;-74
2022/03/21 07:52:09;;;;;;;11.60;7.28;;;;;;;4.38;43.62;102693.75;4955961;28;20047;-74
2022/03/21 07:54:34;;;;;;;12.45;6.75;;;;;;;4.50;42.80;102692.59;4954667;29;20054;-74
2022/03/21 07:57:00;;;;;;;11.90;6.35;;;;;;;4.61;42.07;102697.59;4956226;28;20043;-74
2022/03/21 07:59:25;;;;;;;12.18;7.72;;;;;;;4.80;42.46;102685.47;4954295;28;20043;-74
2022/03/21 08:01:50;;;;;;;17.13;11.07;;;;;;;4.92;41.64;102690.44;4955819;28;20130;-74
2022/03/21 08:04:17;;;;;;;15.18;8.25;;;;;;;5.06;41.65;102689.44;4956314;28;20035;-73
2022/03/21 08:06:43;;;;;;;10.05;7.32;;;;;;;5.18;41.08;102682.19;4956101;28;20035;-74
2022/03/21 08:09:09;;;;;;;10.88;7.15;;;;;;;5.31;40.96;102693.28;4954817;29;20050;-74
2022/03/21 08:11:34;;;;;;;10.68;7.18;;;;;;;5.43;40.96;102692.16;4955868;28;20031;-74
2022/03/21 08:13:59;;;;;;;18.63;7.32;;;;;;;5.58;40.44;102686.81;4952491;28;20584;-74
2022/03/21 08:16:25;;;;;;;12.43;6.80;;;;;;;5.64;39.14;102692.31;4955828;28;20409;-74
2022/03/21 08:18:51;;;;;;;14.23;8.38;;;;;;;5.82;39.68;102699.28;4955738;28;20415;-74
2022/03/21 08:21:18;;;;;;;29.90;16.42;;;;;;;5.99;41.29;102692.25;4954355;29;20035;-74
2022/03/21 08:23:43;;;;;;;13.50;8.20;;;;;;;6.14;38.88;102693.84;4955879;28;20039;-74
2022/03/21 08:26:10;;;;;;;10.43;6.40;;;;;;;6.33;37.71;102684.22;4955805;28;20047;-74
2022/03/21 08:28:36;;;;;;;10.73;5.72;;;;;;;6.40;36.50;102690.66;4955817;28;20039;-74
2022/03/21 08:31:01;;;;;;;9.50;6.60;;;;;;;6.52;36.64;102684.25;4955405;28;20486;-75
2022/03/21 08:33:26;;;;;;;11.43;6.53;;;;;;;6.64;35.44;102683.88;4955795;28;20043;-74
2022/03/21 08:35:52;;;;;;;11.18;6.57;;;;;;;6.76;35.84;102680.91;4955657;28;20039;-74
2022/03/21 08:38:17;;;;;;;9.93;6.32;;;;;;;6.82;34.99;102680.28;4955611;28;20046;-74
2022/03/21 08:40:42;;;;;;;8.90;5.82;;;;;;;6.91;34.90;102681.53;4955567;28;20027;-74
2022/03/21 08:43:08;;;;;;;11.00;6.25;;;;;;;7.03;35.07;102681.19;4951665;28;20506;-74
2022/03/21 08:45:34;;;;;;;11.70;6.03;;;;;;;7.15;35.08;102681.72;4952005;28;20446;-74
2022/03/21 08:48:00;;;;;;;8.88;5.53;;;;;;;7.20;34.03;102679.25;4953829;28;20417;-74
2022/03/21 08:50:26;;;;;;;6.97;4.97;;;;;;;7.25;33.67;102678.63;4955431;28;20039;-74
2022/03/21 08:52:52;;;;;;;11.57;6.40;;;;;;;7.31;33.05;102675.38;4955043;28;20046;-74
2022/03/21 08:55:17;;;;;;;9.32;6.07;;;;;;;7.38;32.79;102671.25;4955318;28;20035;-74
2022/03/21 08:57:43;;;;;;;11.65;6.07;;;;;;;7.41;32.51;102676.63;4955215;28;20405;-74
2022/03/21 09:00:10;;;;;;;9.52;6.70;;;;;;;7.57;33.60;102670.28;4952832;28;20065;-74
2022/03/21 09:02:36;;;;;;;11.45;6.00;;;;;;;7.66;32.06;102675.91;4955185;28;20557;-74
2022/03/21 09:05:04;;;;;;;10.55;5.88;;;;;;;7.74;31.97;102673.59;4955220;28;20035;-74
2022/03/21 09:07:30;;;;;;;9.80;6.28;;;;;;;7.84;32.46;102670.50;4954799;28;20685;-74
2022/03/21 09:09:55;;;;;;;12.20;6.28;;;;;;;7.90;31.79;102675.97;4955136;28;20070;-74
2022/03/21 09:12:21;;;;;;;9.15;5.78;;;;;;;8.02;32.10;102673.84;4954262;28;20043;-74
2022/03/21 09:14:46;;;;;;;11.20;5.78;;;;;;;8.06;31.66;102672.22;4950504;29;20039;-74
2022/03/21 09:17:13;;;;;;;9.00;5.90;;;;;;;8.08;31.36;102673.16;4954842;28;20077;-74
2022/03/21 09:19:39;;;;;;;9.10;6.45;;;;;;;8.13;31.41;102675.13;4954943;28;20039;-74
2022/03/21 09:22:04;;;;;;;11.55;6.00;;;;;;;8.31;31.05;102668.78;4954519;28;20569;-74
2022/03/21 09:24:30;;;;;;;7.80;5.15;;;;;;;8.38;30.89;102675.16;4954804;28;20035;-74
2022/03/21 09:26:55;;;;;;;11.93;6.07;;;;;;;8.42;30.61;102661.31;4955046;28;20650;-74
2022/03/21 09:29:21;;;;;;;9.32;5.47;;;;;;;8.52;30.71;102658.19;4954651;28;20066;-74
2022/03/21 09:31:48;;;;;;;11.68;5.63;;;;;;;8.66;31.09;102656.94;4954480;28;20522;-74
2022/03/21 09:34:16;;;;;;;12.20;6.32;;;;;;;8.80;31.00;102659.16;4951097;29;20047;-74
2022/03/21 09:36:42;;;;;;;8.73;5.50;;;;;;;8.85;30.25;102668.09;4954488;28;20085;-74
2022/03/21 09:39:08;;;;;;;8.95;5.57;;;;;;;8.85;29.19;102668.09;4953274;28;20035;-74
2022/03/21 09:41:34;;;;;;;9.77;6.03;;;;;;;8.99;29.88;102669.50;4954264;28;20035;-74
2022/03/21 09:44:07;;;;;;;11.02;5.95;;;;;;;9.10;29.34;102660.22;4947445;28;20121;-74
2022/03/21 09:46:33;;;;;;;;;;;;;;;9.18;30.06;102649.94;4948378;29;20031;-74
2022/03/21 09:48:58;;;;;;;9.82;6.15;;;;;;;9.30;29.13;102649.44;4953028;28;19918;-74
2022/03/21 09:51:28;;;;;;;9.30;5.35;;;;;;;9.42;29.43;102650.75;4953478;28;20121;-74
2022/03/21 09:53:59;;;;;;;9.32;5.63;;;;;;;9.37;28.40;102648.81;4948674;29;20035;-74
2022/03/21 09:56:26;;;;;;;8.93;5.55;;;;;;;9.47;28.45;102639.47;4954113;28;20039;-74
2022/03/21 09:58:59;;;;;;;9.13;5.93;;;;;;;9.58;29.05;102646.84;4950586;29;20051;-74
2022/03/21 10:01:25;;;;;;;7.82;5.43;;;;;;;9.66;29.08;102642.72;4953820;28;20082;-74
2022/03/21 10:03:50;;;;;;;9.30;5.88;;;;;;;9.78;28.71;102643.97;4954008;28;20037;-74
2022/03/21 10:06:40;;;;;;;11.55;6.95;;;;;;;9.80;28.67;102635.25;4953898;28;20557;-74
2022/03/21 10:09:17;;;;;;;14.75;11.32;;;;;;;9.96;30.16;102636.59;4950337;29;20058;-74
2022/03/21 10:11:57;;;;;;;14.30;7.78;;;;;;;10.12;27.50;102629.16;4953086;28;20039;-74
2022/03/21 10:14:39;;;;;;;14.75;10.68;;;;;;;10.15;28.55;102626.59;4948080;29;20039;-74
2022/03/21 10:17:10;;;;;;;13.43;9.02;;;;;;;10.25;29.81;102620.72;4945404;29;20058;-74
2022/03/21 10:19:46;;;;;;;13.02;8.93;;;;;;;10.35;29.00;102620.19;4953590;28;20410;-74
2022/03/21 10:22:14;;;;;;;13.02;8.88;;;;;;;10.33;26.96;102616.59;4951005;29;20098;-74
2022/03/21 10:24:45;;;;;;;12.80;8.43;;;;;;;10.40;27.85;102612.38;4953790;28;20098;-74
2022/03/21 10:27:36;;;;;;;16.05;11.57;;;;;;;10.53;27.51;102610.13;4953624;28;20490;-74
2022/03/21 10:30:08;;;;;;;23.25;9.63;;;;;;;10.73;28.41;102620.31;4950188;29;20126;-74
2022/03/21 10:32:36;;;;;;;11.55;7.75;;;;;;;10.85;28.05;102618.00;4948266;28;20039;-74
2022/03/21 10:35:22;;;;;;;14.75;7.40;;;;;;;10.91;28.28;102612.00;4953502;28;20039;-74
2022/03/21 10:37:53;;;;;;;12.68;7.90;;;;;;;10.96;28.74;102610.34;4953404;28;20101;-74
2022/03/21 10:40:23;;;;;;;12.00;7.95;;;;;;;11.02;28.12;102610.50;4953466;28;20475;-74
2022/03/21 10:42:59;;;;;;;10.10;6.35;;;;;;;11.13;27.66;102609.03;4950440;28;20126;-74
2022/03/21 10:45:36;;;;;;;9.70;6.05;;;;;;;11.17;26.88;102616.19;4950621;29;20086;-74
2022/03/21 10:48:05;;;;;;;8.27;5.45;;;;;;;11.25;27.57;102611.09;4948958;29;20526;-74
2022/03/21 10:50:32;;;;;;;10.50;5.60;;;;;;;11.38;27.53;102605.22;4953163;28;20063;-74
2022/03/21 10:53:07;;;;;;;9.55;5.28;;;;;;;11.51;25.87;102608.16;4953143;28;20167;-74
2022/03/21 10:55:32;;;;;;;9.27;5.93;;;;;;;11.59;26.69;102604.84;4949638;29;20039;-74
2022/03/21 10:57:58;;;;;;;7.65;5.45;;;;;;;11.72;27.28;102606.00;4953187;28;20043;-74
2022/03/21 11:00:34;;;;;;;8.07;5.63;;;;;;;11.78;26.03;102605.25;4953343;28;20059;-74
2022/03/21 11:03:05;;;;;;;10.25;5.75;;;;;;;11.73;25.41;102612.19;4947570;29;20038;-74
2022/03/21 11:05:34;;;;;;;8.40;5.40;;;;;;;11.86;25.94;102598.41;4953016;28;20041;-75
2022/03/21 11:08:00;;;;;;;8.85;5.88;;;;;;;11.96;25.87;102604.78;4953194;28;20167;-74
2022/03/21 11:10:27;;;;;;;7.72;5.38;;;;;;;11.98;25.43;102611.91;4953154;28;20035;-74
2022/03/21 11:12:56;;;;;;;10.25;5.47;;;;;;;11.87;24.20;102605.50;4950932;28;20035;-74
2022/03/21 11:15:22;;;;;;;9.60;5.68;;;;;;;11.90;24.84;102597.63;4952040;29;20035;-75
2022/03/21 11:17:48;;;;;;;8.00;5.38;;;;;;;11.89;24.97;102597.56;4946341;28;20070;-74
2022/03/21 11:20:15;;;;;;;9.40;5.82;;;;;;;11.95;24.62;102595.06;4949945;28;20114;-74
2022/03/21 11:22:42;;;;;;;11.52;6.47;;;;;;;12.02;25.36;102589.91;4954153;28;20130;-74
2022/03/21 11:25:12;;;;;;;8.27;5.45;;;;;;;12.22;24.89;102576.19;4957012;28;20069;-74
2022/03/21 11:28:05;;;;;;;8.05;5.97;;;;;;;12.25;24.42;102574.50;4955545;29;20114;-74
2022/03/21 11:30:38;;;;;;;10.18;6.13;;;;;;;12.38;24.16;102569.44;4954382;29;20241;-74
2022/03/21 11:33:19;;;;;;;9.07;5.65;;;;;;;12.42;24.75;102572.19;4954544;28;20031;-74
2022/03/21 11:35:51;;;;;;;9.63;5.93;;;;;;;12.51;24.64;102568.81;4956717;28;20054;-74
2022/03/21 11:38:29;;;;;;;10.32;6.25;;;;;;;12.58;24.64;102569.84;4953277;29;20039;-74
2022/03/21 11:41:15;;;;;;;8.52;5.53;;;;;;;12.78;24.04;102575.47;4956572;28;20560;-74
2022/03/21 11:43:43;;;;;;;9.02;6.28;;;;;;;13.00;24.10;102577.63;4954727;29;20047;-74